Time;durP1;ratioP1;P1;durP2;ratioP2;P2;SDS_P1;SDS_P2;PMS_P1;PMS_P2;Temp;Humidity;BMP_temperature;BMP_pressure;BME280_temperature;BME280_humidity;BME280_pressure;Samples;Min_cycle;Max_cycle;Signal;HPM_P1;HPM_P2
2023/08/22 00:01:25;;;;;;;5.20;2.65;;;;;;;;;;5041323;28;20091;-77
2023/08/22 00:03:52;;;;;;;3.90;2.45;;;;;;;;;;5040625;28;20032;-75
2023/08/22 00:06:18;;;;;;;7.05;2.50;;;;;;;;;;5040254;28;20068;-75
2023/08/22 00:08:43;;;;;;;4.68;2.10;;;;;;;;;;5040034;28;20351;-75
2023/08/22 00:11:10;;;;;;;6.10;2.30;;;;;;;;;;5041411;28;20033;-80
2023/08/22 00:13:35;;;;;;;5.43;1.80;;;;;;;;;;5040959;28;20083;-76
2023/08/22 00:16:01;;;;;;;4.30;2.00;;;;;;;;;;5040570;28;20041;-82
2023/08/22 00:18:27;;;;;;;4.45;1.90;;;;;;;;;;5039804;28;20317;-84
2023/08/22 00:20:52;;;;;;;5.25;1.80;;;;;;;;;;5040859;28;20569;-89
2023/08/22 00:23:18;;;;;;;3.55;1.70;;;;;;;;;;5040371;28;20056;-81
2023/08/22 00:25:44;;;;;;;4.82;1.80;;;;;;;;;;5041143;28;20040;-82
2023/08/22 00:28:09;;;;;;;4.63;1.80;;;;;;;;;;5041243;28;20021;-80
2023/08/22 00:30:35;;;;;;;4.85;1.83;;;;;;;;;;5041226;28;20309;-84
2023/08/22 00:33:00;;;;;;;3.92;1.55;;;;;;;;;;5040532;28;20370;-75
2023/08/22 00:35:28;;;;;;;4.20;1.60;;;;;;;;;;5040671;28;20331;-76
2023/08/22 00:37:54;;;;;;;5.03;1.75;;;;;;;;;;5040067;28;20028;-76
2023/08/22 00:40:19;;;;;;;5.97;1.90;;;;;;;;;;5040574;28;20018;-77
2023/08/22 00:42:44;;;;;;;5.50;1.92;;;;;;;;;;5040267;28;20037;-77
2023/08/22 00:45:10;;;;;;;4.50;1.63;;;;;;;;;;5040457;28;20248;-75
2023/08/22 00:47:35;;;;;;;4.25;1.88;;;;;;;;;;5039728;28;20013;-83
2023/08/22 00:50:02;;;;;;;6.18;1.80;;;;;;;;;;5040607;28;20009;-78
2023/08/22 00:52:28;;;;;;;3.85;1.80;;;;;;;;;;5039817;28;20021;-74
2023/08/22 00:54:54;;;;;;;4.38;1.80;;;;;;;;;;5040153;28;20021;-79
2023/08/22 00:57:20;;;;;;;4.30;1.73;;;;;;;;;;5038494;28;20100;-77
2023/08/22 00:59:45;;;;;;;6.97;1.73;;;;;;;;;;5040056;28;20388;-75
2023/08/22 01:02:11;;;;;;;2.95;1.60;;;;;;;;;;5039480;28;20029;-79
2023/08/22 01:04:37;;;;;;;3.60;1.60;;;;;;;;;;5037776;28;20029;-76
2023/08/22 01:07:18;;;;;;;5.60;1.70;;;;;;;;;;5038887;28;20021;-78
2023/08/22 01:10:00;;;;;;;5.68;1.80;;;;;;;;;;5039568;28;20022;-75
2023/08/22 01:12:42;;;;;;;5.22;1.70;;;;;;;;;;5038581;28;20025;-74
2023/08/22 01:15:21;;;;;;;3.90;1.65;;;;;;;;;;5040147;28;20096;-76
2023/08/22 01:17:49;;;;;;;3.72;1.73;;;;;;;;;;5039307;28;20029;-81
2023/08/22 01:20:15;;;;;;;5.13;1.63;;;;;;;;;;5042703;28;20356;-76
2023/08/22 01:22:41;;;;;;;7.32;1.67;;;;;;;;;;5042555;28;20032;-74
2023/08/22 01:25:07;;;;;;;3.58;1.55;;;;;;;;;;5044115;28;20025;-77
2023/08/22 01:27:39;;;;;;;3.58;1.60;;;;;;;;;;5043698;28;20170;-74
2023/08/22 01:30:15;;;;;;;3.50;1.50;;;;;;;;;;5044679;28;20033;-75
2023/08/22 01:32:48;;;;;;;6.28;1.85;;;;;;;;;;5043084;28;20329;-74
2023/08/22 01:35:16;;;;;;;5.40;1.60;;;;;;;;;;5043458;28;20033;-81
2023/08/22 01:37:43;;;;;;;3.88;1.60;;;;;;;;;;5043031;28;20025;-74
2023/08/22 01:40:10;;;;;;;4.35;1.63;;;;;;;;;;5043342;28;20022;-74
2023/08/22 01:42:35;;;;;;;4.60;1.60;;;;;;;;;;5043225;28;20045;-74
2023/08/22 01:45:01;;;;;;;4.80;1.50;;;;;;;;;;5043475;28;20087;-77
2023/08/22 01:47:26;;;;;;;4.75;1.80;;;;;;;;;;5041784;28;20018;-82
2023/08/22 01:49:52;;;;;;;2.60;1.50;;;;;;;;;;5043632;28;20088;-76
2023/08/22 01:52:17;;;;;;;2.72;1.50;;;;;;;;;;5042829;28;20025;-78
2023/08/22 01:54:43;;;;;;;5.03;1.60;;;;;;;;;;5043417;28;20028;-74
2023/08/22 01:57:09;;;;;;;4.13;1.73;;;;;;;;;;5043163;28;20017;-75
2023/08/22 01:59:34;;;;;;;4.35;1.50;;;;;;;;;;5042205;28;20042;-74
2023/08/22 02:02:00;;;;;;;3.55;1.40;;;;;;;;;;5042453;28;20029;-74
2023/08/22 02:04:25;;;;;;;4.70;1.58;;;;;;;;;;5043099;28;20025;-74
2023/08/22 02:06:51;;;;;;;5.82;1.60;;;;;;;;;;5042081;28;20064;-74
2023/08/22 02:09:16;;;;;;;3.40;1.60;;;;;;;;;;5040610;28;20021;-87
2023/08/22 02:11:41;;;;;;;6.40;1.60;;;;;;;;;;5042734;28;20328;-86
2023/08/22 02:14:07;;;;;;;4.22;1.40;;;;;;;;;;5042574;28;20243;-86
2023/08/22 02:16:33;;;;;;;5.57;1.50;;;;;;;;;;5040683;28;20186;-82
2023/08/22 02:18:59;;;;;;;4.80;1.60;;;;;;;;;;5038481;28;20317;-75
2023/08/22 02:21:24;;;;;;;5.00;1.50;;;;;;;;;;5042329;28;20034;-74
2023/08/22 02:23:50;;;;;;;5.95;1.70;;;;;;;;;;5037402;28;20759;-78
2023/08/22 02:26:16;;;;;;;3.78;1.35;;;;;;;;;;5042317;28;20339;-76
2023/08/22 02:28:41;;;;;;;3.17;1.40;;;;;;;;;;5042202;28;20498;-80
2023/08/22 02:31:07;;;;;;;5.07;1.40;;;;;;;;;;5039826;28;20308;-76
2023/08/22 02:33:32;;;;;;;6.50;1.45;;;;;;;;;;5040294;28;20033;-81
2023/08/22 02:35:57;;;;;;;3.72;1.60;;;;;;;;;;5032009;28;20030;-82
2023/08/22 02:38:23;;;;;;;3.22;1.55;;;;;;;;;;5033965;28;20104;-81
2023/08/22 02:40:49;;;;;;;4.07;1.63;;;;;;;;;;5043144;28;20096;-82
2023/08/22 02:43:14;;;;;;;3.35;1.50;;;;;;;;;;5039492;28;20383;-80
2023/08/22 02:45:39;;;;;;;5.72;1.70;;;;;;;;;;5041983;28;20025;-76
2023/08/22 02:48:05;;;;;;;4.20;1.40;;;;;;;;;;5041714;28;20063;-83
2023/08/22 02:50:31;;;;;;;5.05;1.50;;;;;;;;;;5042082;28;20033;-88
2023/08/22 02:52:56;;;;;;;7.10;1.80;;;;;;;;;;5040075;28;20859;-85
2023/08/22 02:55:22;;;;;;;5.68;1.70;;;;;;;;;;5039058;28;20029;-85
2023/08/22 02:57:47;;;;;;;2.47;1.40;;;;;;;;;;5041260;28;20065;-84
2023/08/22 03:00:13;;;;;;;3.65;1.63;;;;;;;;;;5033569;28;20049;-92
2023/08/22 03:02:39;;;;;;;3.90;1.40;;;;;;;;;;5040346;28;20331;-81
2023/08/22 03:05:07;;;;;;;3.95;1.60;;;;;;;;;;5038262;28;20028;-78
2023/08/22 03:07:32;;;;;;;3.38;1.60;;;;;;;;;;5039816;28;20260;-77
2023/08/22 03:09:58;;;;;;;3.35;1.50;;;;;;;;;;5041161;28;20025;-79
2023/08/22 03:12:23;;;;;;;4.85;1.65;;;;;;;;;;5040735;28;20076;-85
2023/08/22 03:14:49;;;;;;;2.95;1.58;;;;;;;;;;5041101;28;20017;-78
2023/08/22 03:17:14;;;;;;;3.35;1.42;;;;;;;;;;5041058;28;20056;-80
2023/08/22 03:19:40;;;;;;;5.18;1.50;;;;;;;;;;5041363;28;20132;-79
2023/08/22 03:22:05;;;;;;;4.60;1.70;;;;;;;;;;5040830;28;20037;-76
2023/08/22 03:24:30;;;;;;;3.13;1.27;;;;;;;;;;5039874;28;20079;-81
2023/08/22 03:26:56;;;;;;;3.72;1.50;;;;;;;;;;5039844;28;20547;-78
2023/08/22 03:29:22;;;;;;;2.72;1.42;;;;;;;;;;5041736;28;20025;-77
2023/08/22 03:31:47;;;;;;;2.70;1.48;;;;;;;;;;5041644;28;20044;-79
2023/08/22 03:34:12;;;;;;;3.72;1.45;;;;;;;;;;5041804;28;20021;-76
2023/08/22 03:36:38;;;;;;;5.85;1.50;;;;;;;;;;5041730;28;20591;-75
2023/08/22 03:39:03;;;;;;;3.22;1.50;;;;;;;;;;5041556;28;20049;-76
2023/08/22 03:41:29;;;;;;;4.13;1.50;;;;;;;;;;5041363;28;20045;-79
2023/08/22 03:43:54;;;;;;;5.15;1.40;;;;;;;;;;5041183;28;20025;-77
2023/08/22 03:46:19;;;;;;;3.25;1.50;;;;;;;;;;5041359;28;20052;-76
2023/08/22 03:48:45;;;;;;;5.00;1.52;;;;;;;;;;5041533;28;20025;-76
2023/08/22 03:51:11;;;;;;;3.38;1.63;;;;;;;;;;5041406;28;20262;-82
2023/08/22 03:53:37;;;;;;;4.88;1.48;;;;;;;;;;5040818;28;20030;-81
2023/08/22 03:56:03;;;;;;;4.95;1.70;;;;;;;;;;5041327;28;20030;-79
2023/08/22 03:58:28;;;;;;;2.42;1.30;;;;;;;;;;5041242;28;20092;-80
2023/08/22 04:00:54;;;;;;;2.92;1.40;;;;;;;;;;5041220;28;20044;-76
2023/08/22 04:03:20;;;;;;;3.83;1.52;;;;;;;;;;5040564;28;20246;-76
2023/08/22 04:05:45;;;;;;;5.05;1.80;;;;;;;;;;5040009;28;20048;-75
2023/08/22 04:08:10;;;;;;;2.53;1.40;;;;;;;;;;5041130;28;20030;-75
2023/08/22 04:10:36;;;;;;;4.13;1.45;;;;;;;;;;5041448;28;20017;-76
2023/08/22 04:13:01;;;;;;;4.47;1.70;;;;;;;;;;5039469;28;20104;-74
2023/08/22 04:15:27;;;;;;;3.72;1.50;;;;;;;;;;5040432;28;20056;-76
2023/08/22 04:17:52;;;;;;;3.63;1.60;;;;;;;;;;5041119;28;20021;-77
2023/08/22 04:20:18;;;;;;;3.10;1.50;;;;;;;;;;5040537;28;20078;-88
2023/08/22 04:22:43;;;;;;;5.13;1.58;;;;;;;;;;5035222;28;20029;-81
2023/08/22 04:25:10;;;;;;;4.03;1.63;;;;;;;;;;5029712;28;20068;-76
2023/08/22 04:27:36;;;;;;;5.90;1.75;;;;;;;;;;5031776;28;20041;-75
2023/08/22 04:30:02;;;;;;;3.47;1.50;;;;;;;;;;5029963;28;20112;-85
2023/08/22 04:32:27;;;;;;;5.18;1.60;;;;;;;;;;5032864;28;20061;-76
2023/08/22 04:34:53;;;;;;;4.25;1.50;;;;;;;;;;5034630;28;20726;-79
2023/08/22 04:37:18;;;;;;;4.25;1.67;;;;;;;;;;5039631;28;20048;-75
2023/08/22 04:39:43;;;;;;;4.82;1.50;;;;;;;;;;5036816;28;20025;-80
2023/08/22 04:42:09;;;;;;;5.32;1.67;;;;;;;;;;5040177;28;20037;-76
2023/08/22 04:44:34;;;;;;;4.55;1.50;;;;;;;;;;5041059;28;20021;-88
2023/08/22 04:46:59;;;;;;;5.18;1.77;;;;;;;;;;5031665;28;20082;-78
2023/08/22 04:49:25;;;;;;;4.82;1.65;;;;;;;;;;5037486;28;20323;-86
2023/08/22 04:51:50;;;;;;;5.80;1.63;;;;;;;;;;5035332;28;20026;-77
2023/08/22 04:54:15;;;;;;;4.55;1.55;;;;;;;;;;5034415;28;20033;-75
2023/08/22 04:56:41;;;;;;;7.57;1.92;;;;;;;;;;5030315;28;20029;-75
2023/08/22 04:59:06;;;;;;;4.03;1.70;;;;;;;;;;5030466;28;20076;-76
2023/08/22 05:01:31;;;;;;;5.05;1.70;;;;;;;;;;5031857;28;20139;-83
2023/08/22 05:03:57;;;;;;;6.32;1.60;;;;;;;;;;5038414;28;20173;-80
2023/08/22 05:06:22;;;;;;;6.97;1.70;;;;;;;;;;5029883;28;20025;-81
2023/08/22 05:08:47;;;;;;;5.93;1.67;;;;;;;;;;5029416;28;20044;-84
2023/08/22 05:11:13;;;;;;;4.95;1.80;;;;;;;;;;5030334;28;20028;-78
2023/08/22 05:13:38;;;;;;;5.40;1.85;;;;;;;;;;5029117;28;20124;-75
2023/08/22 05:16:03;;;;;;;7.15;1.80;;;;;;;;;;5029833;28;20409;-79
2023/08/22 05:18:29;;;;;;;9.20;2.00;;;;;;;;;;5029761;28;20034;-80
2023/08/22 05:20:54;;;;;;;11.52;1.90;;;;;;;;;;5029207;28;20025;-75
2023/08/22 05:23:19;;;;;;;13.30;2.10;;;;;;;;;;5028565;28;20060;-78
2023/08/22 05:25:45;;;;;;;13.35;2.35;;;;;;;;;;5029523;28;20159;-77
2023/08/22 05:28:10;;;;;;;7.40;2.10;;;;;;;;;;5029460;28;20036;-75
2023/08/22 05:30:39;;;;;;;11.38;2.30;;;;;;;;;;5029515;28;20040;-83
2023/08/22 05:33:05;;;;;;;7.13;2.55;;;;;;;;;;5029138;28;20037;-87
2023/08/22 05:35:30;;;;;;;7.03;2.40;;;;;;;;;;5029239;28;20080;-75
2023/08/22 05:37:56;;;;;;;6.70;2.45;;;;;;;;;;5029212;28;20053;-75
2023/08/22 05:40:21;;;;;;;4.50;2.40;;;;;;;;;;5029101;28;20029;-87
2023/08/22 05:42:46;;;;;;;6.95;2.60;;;;;;;;;;5028743;28;20053;-79
2023/08/22 05:45:12;;;;;;;5.53;2.35;;;;;;;;;;5028692;28;20034;-76
2023/08/22 05:47:37;;;;;;;7.82;2.60;;;;;;;;;;5029946;28;20458;-89
2023/08/22 05:50:04;;;;;;;7.68;2.60;;;;;;;;;;5030335;28;20029;-91
2023/08/22 05:52:30;;;;;;;6.32;2.30;;;;;;;;;;5029057;28;20060;-90
2023/08/22 05:54:55;;;;;;;6.82;2.10;;;;;;;;;;5029265;28;20022;-85
2023/08/22 05:57:22;;;;;;;6.85;1.98;;;;;;;;;;5029074;28;20035;-86
2023/08/22 05:59:48;;;;;;;6.13;1.77;;;;;;;;;;5030143;28;20013;-80
2023/08/22 06:02:14;;;;;;;7.68;2.00;;;;;;;;;;5028845;28;20034;-87
2023/08/22 06:04:39;;;;;;;4.47;1.90;;;;;;;;;;5027892;28;20086;-86
2023/08/22 06:07:05;;;;;;;5.55;1.75;;;;;;;;;;5030507;28;20041;-75
2023/08/22 06:09:31;;;;;;;3.90;1.90;;;;;;;;;;5032930;28;20048;-90
2023/08/22 06:11:56;;;;;;;6.32;2.50;;;;;;;;;;5032473;28;20026;-89
2023/08/22 06:14:21;;;;;;;3.97;1.80;;;;;;;;;;5032817;28;20441;-91
2023/08/22 06:16:46;;;;;;;8.38;1.90;;;;;;;;;;5033175;28;20068;-90
2023/08/22 06:19:12;;;;;;;6.72;1.77;;;;;;;;;;5033341;28;20491;-81
2023/08/22 06:21:37;;;;;;;3.67;1.73;;;;;;;;;;5031966;28;20447;-84
2023/08/22 06:24:04;;;;;;;8.43;1.88;;;;;;;;;;5032189;28;20095;-85
2023/08/22 06:26:30;;;;;;;6.10;1.75;;;;;;;;;;5031615;28;20493;-87
2023/08/22 06:28:55;;;;;;;7.30;1.83;;;;;;;;;;5032140;28;20033;-88
2023/08/22 06:31:20;;;;;;;4.97;1.85;;;;;;;;;;5031491;28;20029;-75
2023/08/22 06:33:46;;;;;;;12.90;2.17;;;;;;;;;;5031799;28;20030;-90
2023/08/22 06:36:11;;;;;;;10.30;1.95;;;;;;;;;;5033059;28;20033;-88
2023/08/22 06:38:36;;;;;;;8.57;2.00;;;;;;;;;;5032396;28;20040;-87
2023/08/22 06:41:05;;;;;;;5.32;2.13;;;;;;;;;;5034260;28;20033;-91
2023/08/22 06:43:30;;;;;;;6.07;2.30;;;;;;;;;;5033603;28;20074;-81
2023/08/22 06:45:57;;;;;;;5.88;1.95;;;;;;;;;;5031495;28;20056;-85
2023/08/22 06:48:22;;;;;;;7.00;2.10;;;;;;;;;;5031574;28;20025;-83
2023/08/22 06:50:49;;;;;;;8.18;2.20;;;;;;;;;;5031728;28;20034;-86
2023/08/22 06:53:14;;;;;;;9.73;2.03;;;;;;;;;;5030896;28;20033;-87
2023/08/22 06:55:39;;;;;;;5.80;2.10;;;;;;;;;;5031708;28;20029;-85
2023/08/22 06:58:07;;;;;;;6.93;2.28;;;;;;;;;;5031467;28;20385;-78
2023/08/22 07:00:32;;;;;;;15.23;2.58;;;;;;;;;;5031496;28;20030;-89
2023/08/22 07:02:58;;;;;;;14.82;2.50;;;;;;;;;;5029839;28;20028;-85
2023/08/22 07:05:23;;;;;;;8.05;2.40;;;;;;;;;;5031410;28;20036;-77
2023/08/22 07:07:48;;;;;;;8.48;2.50;;;;;;;;;;5029640;28;20485;-76
2023/08/22 07:10:14;;;;;;;9.23;2.38;;;;;;;;;;5031295;28;20124;-86
2023/08/22 07:12:39;;;;;;;6.20;2.28;;;;;;;;;;5031487;28;20379;-76
2023/08/22 07:15:05;;;;;;;6.75;2.30;;;;;;;;;;5030645;28;20029;-75
2023/08/22 07:17:31;;;;;;;6.72;1.98;;;;;;;;;;5030749;28;20029;-76
2023/08/22 07:19:56;;;;;;;8.02;2.40;;;;;;;;;;5030175;28;20017;-86
2023/08/22 07:22:22;;;;;;;10.50;2.30;;;;;;;;;;5029161;28;20037;-77
2023/08/22 07:24:47;;;;;;;9.30;2.20;;;;;;;;;;5031263;28;20033;-74
2023/08/22 07:27:14;;;;;;;4.93;2.17;;;;;;;;;;5030737;28;20029;-74
2023/08/22 07:29:39;;;;;;;8.40;2.20;;;;;;;;;;5030736;28;20021;-74
2023/08/22 07:32:06;;;;;;;10.98;2.88;;;;;;;;;;5030391;28;20151;-86
2023/08/22 07:34:31;;;;;;;5.63;2.30;;;;;;;;;;5030796;28;20094;-75
2023/08/22 07:36:57;;;;;;;9.50;2.40;;;;;;;;;;5029898;28;20811;-77
2023/08/22 07:39:23;;;;;;;8.85;2.47;;;;;;;;;;5030804;28;20033;-76
2023/08/22 07:41:48;;;;;;;8.57;2.60;;;;;;;;;;5030392;28;20041;-82
2023/08/22 07:44:14;;;;;;;8.10;2.30;;;;;;;;;;5030880;28;20052;-78
2023/08/22 07:46:39;;;;;;;7.35;2.33;;;;;;;;;;5031064;28;20092;-75
2023/08/22 07:49:04;;;;;;;6.65;2.40;;;;;;;;;;5030660;28;20060;-75
2023/08/22 07:51:30;;;;;;;7.28;2.30;;;;;;;;;;5030103;28;20025;-76
2023/08/22 07:53:56;;;;;;;10.82;2.50;;;;;;;;;;5030432;28;20079;-79
2023/08/22 07:56:22;;;;;;;11.27;2.55;;;;;;;;;;5030354;28;20021;-75
2023/08/22 07:58:48;;;;;;;9.40;2.80;;;;;;;;;;5030146;28;20018;-75
2023/08/22 08:01:13;;;;;;;7.28;2.47;;;;;;;;;;5030378;28;20034;-75
2023/08/22 08:03:39;;;;;;;7.55;2.40;;;;;;;;;;5030276;28;20133;-75
2023/08/22 08:06:04;;;;;;;11.23;2.40;;;;;;;;;;5030302;28;20420;-75
2023/08/22 08:08:30;;;;;;;8.50;2.50;;;;;;;;;;5029526;28;20461;-75
2023/08/22 08:10:55;;;;;;;16.98;2.90;;;;;;;;;;5030183;28;20025;-76
2023/08/22 08:13:20;;;;;;;8.43;2.38;;;;;;;;;;5029907;28;20454;-75
2023/08/22 08:15:46;;;;;;;12.00;2.13;;;;;;;;;;5029998;28;20017;-75
2023/08/22 08:18:11;;;;;;;8.77;2.25;;;;;;;;;;5029717;28;20056;-75
2023/08/22 08:20:37;;;;;;;7.18;2.10;;;;;;;;;;5029719;28;20409;-74
2023/08/22 08:23:03;;;;;;;10.40;2.20;;;;;;;;;;5029455;28;20033;-76
2023/08/22 08:25:29;;;;;;;9.45;2.30;;;;;;;;;;5032227;28;20025;-75
2023/08/22 08:27:55;;;;;;;5.65;2.08;;;;;;;;;;5049822;28;20056;-75
2023/08/22 08:30:21;;;;;;;11.25;2.40;;;;;;;;;;5049193;28;20049;-74
2023/08/22 08:32:46;;;;;;;6.70;2.10;;;;;;;;;;5049246;28;20493;-75
2023/08/22 08:35:12;;;;;;;10.25;2.13;;;;;;;;;;5049072;28;20090;-75
2023/08/22 08:37:37;;;;;;;10.18;2.22;;;;;;;;;;5049584;28;20690;-75
2023/08/22 08:40:06;;;;;;;8.35;2.00;;;;;;;;;;5049724;28;20033;-75
2023/08/22 08:42:35;;;;;;;9.68;2.20;;;;;;;;;;5049176;28;20136;-75
2023/08/22 08:45:00;;;;;;;9.95;2.28;;;;;;;;;;5036194;28;20028;-75
2023/08/22 08:47:26;;;;;;;11.35;2.28;;;;;;;;;;5049447;28;20087;-75
2023/08/22 08:49:53;;;;;;;6.57;2.30;;;;;;;;;;5049060;28;20456;-75
2023/08/22 08:52:19;;;;;;;8.70;1.98;;;;;;;;;;5048900;28;20143;-75
2023/08/22 08:54:46;;;;;;;8.75;2.40;;;;;;;;;;5049647;28;20100;-75
2023/08/22 08:57:11;;;;;;;8.93;2.45;;;;;;;;;;5049303;28;20105;-74
2023/08/22 08:59:36;;;;;;;10.38;2.35;;;;;;;;;;5044448;28;20021;-75
2023/08/22 09:02:03;;;;;;;9.18;2.13;;;;;;;;;;5029447;28;20555;-74
2023/08/22 09:04:28;;;;;;;5.22;2.00;;;;;;;;;;5029146;28;20101;-83
2023/08/22 09:06:54;;;;;;;6.97;2.45;;;;;;;;;;5028897;28;20112;-75
2023/08/22 09:09:20;;;;;;;11.93;2.40;;;;;;;;;;5029267;28;20052;-75
2023/08/22 09:11:49;;;;;;;10.27;2.30;;;;;;;;;;5029803;28;20022;-82
2023/08/22 09:14:19;;;;;;;10.55;2.17;;;;;;;;;;5029446;28;20554;-85
2023/08/22 09:16:45;;;;;;;13.23;2.22;;;;;;;;;;5029289;28;20374;-74
2023/08/22 09:19:11;;;;;;;9.30;2.20;;;;;;;;;;5029365;28;20032;-84
2023/08/22 09:21:37;;;;;;;6.25;1.83;;;;;;;;;;5028607;28;20042;-80
2023/08/22 09:24:08;;;;;;;4.85;2.20;;;;;;;;;;5028990;28;20031;-87
2023/08/22 09:26:34;;;;;;;12.55;2.08;;;;;;;;;;5029203;28;20025;-84
2023/08/22 09:29:04;;;;;;;7.75;2.03;;;;;;;;;;5029154;28;20026;-85
2023/08/22 09:31:30;;;;;;;6.72;2.15;;;;;;;;;;5028975;28;20022;-82
2023/08/22 09:33:55;;;;;;;9.52;2.10;;;;;;;;;;5028974;28;20043;-81
2023/08/22 09:36:21;;;;;;;7.18;1.80;;;;;;;;;;5028042;28;20049;-85
2023/08/22 09:38:52;;;;;;;10.15;2.08;;;;;;;;;;5029003;28;20386;-85
2023/08/22 09:41:25;;;;;;;5.68;1.80;;;;;;;;;;5029931;28;20088;-85
2023/08/22 09:44:00;;;;;;;8.75;2.00;;;;;;;;;;5033788;28;20028;-85
2023/08/22 09:46:27;;;;;;;4.57;1.80;;;;;;;;;;5033429;28;20030;-82
2023/08/22 09:48:55;;;;;;;4.30;1.75;;;;;;;;;;5032930;28;20525;-84
2023/08/22 09:51:21;;;;;;;5.80;1.70;;;;;;;;;;5032347;28;20291;-79
2023/08/22 09:53:50;;;;;;;8.45;1.90;;;;;;;;;;5032682;28;20590;-83
2023/08/22 09:56:17;;;;;;;5.10;1.80;;;;;;;;;;5032001;28;20029;-82
2023/08/22 09:58:43;;;;;;;6.80;1.90;;;;;;;;;;5032677;28;20075;-82
2023/08/22 10:01:09;;;;;;;6.53;1.90;;;;;;;;;;5032766;28;20017;-84
2023/08/22 10:03:35;;;;;;;6.95;2.10;;;;;;;;;;5032669;28;20029;-84
2023/08/22 10:06:01;;;;;;;11.13;2.00;;;;;;;;;;5032262;28;20531;-77
2023/08/22 10:08:26;;;;;;;10.77;2.03;;;;;;;;;;5033267;28;20075;-83
2023/08/22 10:10:52;;;;;;;7.20;1.85;;;;;;;;;;5033188;28;20029;-93
2023/08/22 10:13:21;;;;;;;8.00;1.80;;;;;;;;;;5032814;28;20401;-87
2023/08/22 10:15:48;;;;;;;9.48;2.00;;;;;;;;;;5032283;28;20191;-92
2023/08/22 10:18:13;;;;;;;8.35;1.95;;;;;;;;;;5033023;28;20385;-86
2023/08/22 10:20:40;;;;;;;12.68;2.00;;;;;;;;;;5033639;28;20466;-83
2023/08/22 10:23:08;;;;;;;5.88;1.77;;;;;;;;;;5032576;28;20104;-88
2023/08/22 10:25:49;;;;;;;5.65;1.67;;;;;;;;;;5031949;28;20125;-89
2023/08/22 10:28:15;;;;;;;6.40;1.60;;;;;;;;;;5032273;28;20416;-86
2023/08/22 10:31:04;;;;;;;5.95;1.90;;;;;;;;;;5039035;28;20348;-89
2023/08/22 10:33:29;;;;;;;5.68;1.60;;;;;;;;;;5033064;28;20037;-88
2023/08/22 10:36:07;;;;;;;4.55;1.90;;;;;;;;;;5034419;28;20071;-87
2023/08/22 10:38:53;;;;;;;4.85;1.73;;;;;;;;;;5032410;28;20021;-93
2023/08/22 10:41:41;;;;;;;8.07;1.90;;;;;;;;;;5032812;28;20041;-89
2023/08/22 10:44:16;;;;;;;6.60;1.90;;;;;;;;;;5031367;28;20391;-86
2023/08/22 10:47:14;;;;;;;9.40;2.03;;;;;;;;;;5030728;28;20385;-85
2023/08/22 10:49:39;;;;;;;5.55;1.67;;;;;;;;;;5030359;28;20087;-77
2023/08/22 10:52:06;;;;;;;4.72;1.70;;;;;;;;;;5031533;28;20413;-77
2023/08/22 10:54:33;;;;;;;4.13;1.70;;;;;;;;;;5031282;28;20075;-77
2023/08/22 10:57:17;;;;;;;4.97;1.85;;;;;;;;;;5032059;28;20494;-76
2023/08/22 11:00:01;;;;;;;4.68;1.92;;;;;;;;;;5031856;28;20025;-76
2023/08/22 11:02:33;;;;;;;6.18;1.90;;;;;;;;;;5031012;28;20037;-78
2023/08/22 11:05:01;;;;;;;4.40;1.85;;;;;;;;;;5031866;28;20038;-77
2023/08/22 11:07:28;;;;;;;5.40;1.65;;;;;;;;;;5030793;28;20363;-78
2023/08/22 11:09:54;;;;;;;5.03;1.80;;;;;;;;;;5031186;28;20029;-79
2023/08/22 11:12:23;;;;;;;6.25;1.80;;;;;;;;;;5030121;28;20036;-76
2023/08/22 11:14:50;;;;;;;5.22;1.95;;;;;;;;;;5031551;28;20021;-84
2023/08/22 11:17:16;;;;;;;4.85;1.90;;;;;;;;;;5033021;28;20033;-88
2023/08/22 11:19:42;;;;;;;3.60;1.73;;;;;;;;;;5041053;28;20025;-77
2023/08/22 11:22:07;;;;;;;3.38;1.80;;;;;;;;;;5039959;28;20093;-77
2023/08/22 11:24:33;;;;;;;5.15;1.80;;;;;;;;;;5033226;28;20037;-78
2023/08/22 11:27:05;;;;;;;12.63;5.22;;;;;;;;;;5032071;28;20233;-87
2023/08/22 11:29:43;;;;;;;11.35;4.13;;;;;;;;;;5034392;28;20030;-76
2023/08/22 11:32:38;;;;;;;9.82;4.38;;;;;;;;;;5038654;28;20037;-76
2023/08/22 11:35:05;;;;;;;22.75;8.65;;;;;;;;;;5036642;28;20041;-84
2023/08/22 11:37:34;;;;;;;7.35;3.70;;;;;;;;;;5041380;28;20044;-87
2023/08/22 11:40:00;;;;;;;6.82;2.30;;;;;;;;;;5041235;28;20033;-88
2023/08/22 11:42:37;;;;;;;12.15;2.63;;;;;;;;;;5037565;28;20387;-83
2023/08/22 11:45:08;;;;;;;5.32;2.10;;;;;;;;;;5036996;28;20033;-91
2023/08/22 11:47:37;;;;;;;7.93;2.90;;;;;;;;;;5034091;28;20036;-90
2023/08/22 11:50:04;;;;;;;16.80;11.80;;;;;;;;;;5030598;28;20021;-92
2023/08/22 11:52:29;;;;;;;7.13;3.88;;;;;;;;;;5039679;28;20037;-76
2023/08/22 11:55:03;;;;;;;7.45;2.30;;;;;;;;;;5039050;28;20026;-79
2023/08/22 11:57:28;;;;;;;4.97;2.20;;;;;;;;;;5037127;28;20029;-88
2023/08/22 11:59:53;;;;;;;5.38;1.80;;;;;;;;;;5040078;28;20129;-77
2023/08/22 12:02:19;;;;;;;10.77;1.98;;;;;;;;;;5038751;28;20039;-80
2023/08/22 12:04:45;;;;;;;5.45;2.05;;;;;;;;;;5038774;28;20026;-89
2023/08/22 12:07:10;;;;;;;6.30;1.90;;;;;;;;;;5040180;28;20056;-85
2023/08/22 12:09:36;;;;;;;5.70;2.03;;;;;;;;;;5040993;28;20024;-75
2023/08/22 12:12:12;;;;;;;10.05;2.17;;;;;;;;;;5036527;28;20493;-91
2023/08/22 12:14:37;;;;;;;4.57;2.00;;;;;;;;;;5035699;28;20096;-80
2023/08/22 12:17:03;;;;;;;6.32;1.90;;;;;;;;;;5038752;28;20037;-90
2023/08/22 12:19:28;;;;;;;5.72;2.10;;;;;;;;;;5036733;28;20029;-79
2023/08/22 12:21:53;;;;;;;6.05;2.10;;;;;;;;;;5036345;28;20027;-83
2023/08/22 12:24:19;;;;;;;7.05;2.00;;;;;;;;;;5037788;28;20033;-77
2023/08/22 12:26:44;;;;;;;6.03;2.00;;;;;;;;;;5040024;28;20044;-88
2023/08/22 12:29:09;;;;;;;3.72;1.60;;;;;;;;;;5041266;28;20029;-75
2023/08/22 12:31:35;;;;;;;5.03;1.77;;;;;;;;;;5038159;28;20203;-88
2023/08/22 12:34:00;;;;;;;5.72;1.75;;;;;;;;;;5040497;28;20026;-82
2023/08/22 12:36:25;;;;;;;4.72;1.92;;;;;;;;;;5038362;28;20029;-90
2023/08/22 12:38:51;;;;;;;5.30;2.15;;;;;;;;;;5042213;28;20033;-78
2023/08/22 12:41:17;;;;;;;7.30;1.95;;;;;;;;;;5039903;28;20049;-83
2023/08/22 12:43:42;;;;;;;8.25;1.80;;;;;;;;;;5026352;28;20108;-95
2023/08/22 12:46:08;;;;;;;7.18;1.80;;;;;;;;;;5032189;28;20705;-87
2023/08/22 12:48:35;;;;;;;4.90;2.00;;;;;;;;;;5038078;28;20096;-87
2023/08/22 12:51:01;;;;;;;4.97;2.00;;;;;;;;;;5040374;28;20048;-85
2023/08/22 12:53:26;;;;;;;7.03;2.00;;;;;;;;;;5039949;28;20053;-84
2023/08/22 12:55:51;;;;;;;6.47;2.00;;;;;;;;;;5040274;28;20033;-86
2023/08/22 12:58:17;;;;;;;7.20;1.90;;;;;;;;;;5037853;28;20067;-82
2023/08/22 13:00:42;;;;;;;5.20;2.05;;;;;;;;;;5040479;28;20025;-83
2023/08/22 13:03:08;;;;;;;4.57;1.80;;;;;;;;;;5039191;28;20036;-86
2023/08/22 13:05:34;;;;;;;4.10;2.08;;;;;;;;;;5036023;28;20366;-81
2023/08/22 13:07:59;;;;;;;4.53;1.80;;;;;;;;;;5038922;28;20451;-77
2023/08/22 13:10:25;;;;;;;5.45;2.00;;;;;;;;;;5039880;28;20092;-84
2023/08/22 13:12:50;;;;;;;7.57;2.00;;;;;;;;;;5031949;28;20069;-82
2023/08/22 13:15:15;;;;;;;7.65;2.00;;;;;;;;;;5038001;28;20072;-84
2023/08/22 13:17:41;;;;;;;7.53;2.20;;;;;;;;;;5044553;28;20257;-84
2023/08/22 13:20:07;;;;;;;6.70;2.20;;;;;;;;;;5039064;28;20037;-84
2023/08/22 13:22:33;;;;;;;8.10;1.92;;;;;;;;;;5036814;28;20034;-86
2023/08/22 13:24:59;;;;;;;7.80;1.90;;;;;;;;;;5032666;28;20067;-86
2023/08/22 13:27:24;;;;;;;7.00;2.00;;;;;;;;;;5032783;28;20470;-83
2023/08/22 13:29:49;;;;;;;7.93;2.10;;;;;;;;;;5033155;28;20021;-87
2023/08/22 13:32:15;;;;;;;4.60;1.75;;;;;;;;;;5033496;28;20044;-87
2023/08/22 13:34:40;;;;;;;4.40;1.92;;;;;;;;;;5039394;28;20379;-81
2023/08/22 13:37:05;;;;;;;5.47;2.20;;;;;;;;;;5042976;28;20139;-80
2023/08/22 13:39:32;;;;;;;7.97;2.05;;;;;;;;;;5035259;28;20108;-89
2023/08/22 13:41:57;;;;;;;10.50;2.15;;;;;;;;;;5031312;28;20053;-75
2023/08/22 13:44:23;;;;;;;8.38;2.00;;;;;;;;;;5031151;28;20029;-87
2023/08/22 13:46:50;;;;;;;7.47;1.98;;;;;;;;;;5034458;28;20047;-91
2023/08/22 13:49:15;;;;;;;6.25;2.08;;;;;;;;;;5040558;28;20052;-92
2023/08/22 13:51:40;;;;;;;7.57;2.10;;;;;;;;;;5037862;28;20030;-86
2023/08/22 13:54:06;;;;;;;5.53;2.10;;;;;;;;;;5040978;28;20037;-84
2023/08/22 13:56:31;;;;;;;7.25;2.30;;;;;;;;;;5041430;28;20057;-89
2023/08/22 13:58:57;;;;;;;7.47;2.10;;;;;;;;;;5042318;28;20025;-87
2023/08/22 14:01:23;;;;;;;4.60;2.00;;;;;;;;;;5036034;28;20017;-87
2023/08/22 14:03:48;;;;;;;5.95;2.20;;;;;;;;;;5041900;28;20052;-85
2023/08/22 14:06:14;;;;;;;4.35;2.40;;;;;;;;;;5036043;28;20021;-90
2023/08/22 14:08:39;;;;;;;5.80;2.20;;;;;;;;;;5038743;28;20041;-87
2023/08/22 14:11:06;;;;;;;5.82;2.20;;;;;;;;;;5032508;28;20040;-90
2023/08/22 14:13:33;;;;;;;5.15;2.20;;;;;;;;;;5032694;28;20030;-88
2023/08/22 14:15:58;;;;;;;4.57;2.25;;;;;;;;;;5033444;28;20018;-89
2023/08/22 14:18:24;;;;;;;6.05;2.28;;;;;;;;;;5029046;28;20030;-88
2023/08/22 14:20:49;;;;;;;4.85;2.20;;;;;;;;;;5036931;28;20033;-89
2023/08/22 14:23:14;;;;;;;6.05;2.40;;;;;;;;;;5031254;28;20051;-79
2023/08/22 14:25:40;;;;;;;5.85;2.28;;;;;;;;;;5031741;28;20021;-77
2023/08/22 14:28:06;;;;;;;4.13;1.98;;;;;;;;;;5030690;28;20111;-82
2023/08/22 14:30:32;;;;;;;8.52;2.30;;;;;;;;;;5031222;28;20492;-88
2023/08/22 14:32:58;;;;;;;3.20;2.20;;;;;;;;;;5031403;28;20172;-76
2023/08/22 14:35:23;;;;;;;6.15;2.38;;;;;;;;;;5031210;28;20101;-81
2023/08/22 14:37:48;;;;;;;4.53;2.20;;;;;;;;;;5030818;28;20107;-77